createdAt,value
2022-07-28T00:00:00.232Z,13.50
2022-07-28T00:02:27.350Z,13.50
2022-07-28T00:04:54.751Z,13.50
2022-07-28T00:07:21.762Z,13.50
2022-07-28T00:09:48.643Z,13.40
2022-07-28T00:12:16.064Z,13.40
2022-07-28T00:14:43.425Z,13.40
2022-07-28T00:17:10.386Z,13.40
2022-07-28T00:19:37.275Z,13.30
2022-07-28T00:22:04.316Z,13.30
2022-07-28T00:24:31.902Z,13.30
2022-07-28T00:27:00.081Z,13.30
2022-07-28T00:29:50.051Z,13.20
2022-07-28T00:32:14.884Z,13.10
2022-07-28T00:34:41.873Z,13.10
2022-07-28T00:37:13.402Z,13.10
2022-07-28T00:39:42.060Z,13.10
2022-07-28T00:42:09.284Z,13.10
2022-07-28T00:44:36.441Z,13.10
2022-07-28T00:47:03.518Z,13.10
2022-07-28T00:49:30.535Z,13.20
2022-07-28T00:51:57.794Z,13.10
2022-07-28T00:54:24.671Z,13.10
2022-07-28T00:56:51.607Z,13.10
2022-07-28T00:59:18.598Z,13.10
2022-07-28T01:01:46.252Z,13.00
2022-07-28T01:04:13.373Z,13.00
2022-07-28T01:07:13.277Z,12.90
2022-07-28T01:10:18.309Z,12.90
2022-07-28T01:13:17.373Z,13.00
2022-07-28T01:15:58.888Z,13.00
2022-07-28T01:18:30.983Z,12.90
2022-07-28T01:21:15.761Z,12.90
2022-07-28T01:24:30.248Z,12.90
2022-07-28T01:27:11.046Z,12.90
2022-07-28T01:30:14.084Z,12.90
2022-07-28T01:32:46.384Z,12.80
2022-07-28T01:35:29.373Z,12.90
2022-07-28T01:38:01.074Z,12.90
2022-07-28T01:40:32.633Z,12.90
2022-07-28T01:43:02.566Z,12.90
2022-07-28T01:45:31.014Z,12.80
2022-07-28T01:48:00.801Z,12.80
2022-07-28T01:50:30.428Z,12.80
2022-07-28T01:52:59.021Z,12.80
2022-07-28T01:55:26.397Z,12.80
2022-07-28T01:57:55.542Z,12.80
2022-07-28T02:00:26.188Z,12.90
2022-07-28T02:02:56.618Z,12.90
2022-07-28T02:05:24.638Z,12.90
2022-07-28T02:07:53.423Z,12.80
2022-07-28T02:10:21.496Z,12.80
2022-07-28T02:12:50.394Z,12.80
2022-07-28T02:15:18.420Z,12.70
2022-07-28T02:17:47.138Z,12.70
2022-07-28T02:20:16.395Z,12.60
2022-07-28T02:22:44.363Z,12.60
2022-07-28T02:25:18.450Z,12.60
2022-07-28T02:27:59.086Z,12.60
2022-07-28T02:30:47.441Z,12.60
2022-07-28T02:33:57.899Z,12.50
2022-07-28T02:36:16.269Z,12.60
2022-07-28T02:38:46.731Z,12.50
2022-07-28T02:41:22.413Z,12.50
2022-07-28T02:43:53.098Z,12.50
2022-07-28T02:46:25.565Z,12.50
2022-07-28T02:49:00.473Z,12.50
2022-07-28T02:51:29.698Z,12.50
2022-07-28T02:53:58.391Z,12.40
2022-07-28T02:56:26.442Z,12.40
2022-07-28T02:58:54.879Z,12.30
2022-07-28T03:01:22.642Z,12.30
2022-07-28T03:03:50.377Z,12.20
2022-07-28T03:06:18.255Z,12.20
2022-07-28T03:08:45.406Z,12.20
2022-07-28T03:11:13.928Z,12.30
2022-07-28T03:13:41.165Z,12.30
2022-07-28T03:16:08.968Z,12.30
2022-07-28T03:18:35.889Z,12.30
2022-07-28T03:21:02.798Z,12.30
2022-07-28T03:23:47.852Z,12.20
2022-07-28T03:26:34.143Z,12.20
2022-07-28T03:29:02.211Z,12.20
2022-07-28T03:31:31.837Z,12.20
2022-07-28T03:33:58.836Z,12.20
2022-07-28T03:36:35.745Z,12.20
2022-07-28T03:39:06.431Z,12.30
2022-07-28T03:41:34.517Z,12.20
2022-07-28T03:44:02.953Z,12.30
2022-07-28T03:46:30.085Z,12.20
2022-07-28T03:48:57.108Z,12.20
2022-07-28T03:51:25.662Z,12.30
2022-07-28T03:53:52.648Z,12.30
2022-07-28T03:56:19.608Z,12.20
2022-07-28T03:58:46.622Z,12.20
2022-07-28T04:01:13.685Z,12.20
2022-07-28T04:03:43.750Z,12.20
2022-07-28T04:06:15.549Z,12.20
2022-07-28T04:08:44.158Z,12.20
2022-07-28T04:11:11.146Z,12.20
2022-07-28T04:13:38.116Z,12.10
2022-07-28T04:16:06.978Z,12.10
2022-07-28T04:18:34.316Z,12.10
2022-07-28T04:21:01.197Z,12.10
2022-07-28T04:23:28.578Z,12.00
2022-07-28T04:25:55.506Z,12.10
2022-07-28T04:28:22.691Z,12.10
2022-07-28T04:30:49.779Z,12.10
2022-07-28T04:33:19.547Z,12.30
2022-07-28T04:35:47.150Z,12.30
2022-07-28T04:38:15.082Z,12.70
2022-07-28T04:40:42.646Z,13.10
2022-07-28T04:43:10.473Z,13.50
2022-07-28T04:45:37.464Z,13.70
2022-07-28T04:48:05.319Z,13.90
2022-07-28T04:50:32.754Z,14.00
2022-07-28T04:53:00.029Z,14.10
2022-07-28T04:55:27.038Z,14.30
2022-07-28T04:57:54.082Z,14.50
2022-07-28T05:00:23.062Z,14.80
2022-07-28T05:02:51.391Z,15.10
2022-07-28T05:05:18.772Z,15.50
2022-07-28T05:07:45.757Z,15.70
2022-07-28T05:10:13.120Z,15.70
2022-07-28T05:12:40.142Z,15.70
2022-07-28T05:15:08.471Z,15.40
2022-07-28T05:17:37.081Z,15.40
2022-07-28T05:20:06.017Z,15.60
2022-07-28T05:22:57.380Z,15.80
2022-07-28T05:25:25.549Z,15.80
2022-07-28T05:27:53.925Z,15.90
2022-07-28T05:30:21.679Z,15.50
2022-07-28T05:32:53.991Z,15.00
2022-07-28T05:35:21.049Z,15.00
2022-07-28T05:37:47.903Z,15.00
2022-07-28T05:40:15.515Z,15.40
2022-07-28T05:42:47.754Z,16.30
2022-07-28T05:45:17.500Z,16.80
2022-07-28T05:47:50.971Z,16.80
2022-07-28T05:50:20.839Z,16.50
2022-07-28T05:52:48.214Z,16.40
2022-07-28T05:55:16.242Z,16.90
2022-07-28T05:57:43.697Z,17.10
2022-07-28T06:00:14.958Z,17.20
2022-07-28T06:02:45.783Z,17.60
2022-07-28T06:05:13.451Z,17.10
2022-07-28T06:07:43.021Z,16.70
2022-07-28T06:10:13.318Z,16.20
2022-07-28T06:12:48.440Z,15.80
2022-07-28T06:15:23.820Z,15.80
2022-07-28T06:17:52.659Z,15.80
2022-07-28T06:20:21.062Z,16.10
2022-07-28T06:22:50.479Z,16.60
2022-07-28T06:25:21.115Z,17.10
2022-07-28T06:27:49.653Z,17.40
2022-07-28T06:30:17.303Z,17.70
2022-07-28T06:32:45.171Z,18.20
2022-07-28T06:35:16.329Z,18.10
2022-07-28T06:37:44.139Z,17.90
2022-07-28T06:40:14.750Z,17.90
2022-07-28T06:42:42.562Z,17.90
2022-07-28T06:45:19.787Z,17.90
2022-07-28T06:47:49.198Z,18.30
2022-07-28T06:50:25.745Z,18.50
2022-07-28T06:52:59.013Z,18.10
2022-07-28T06:55:31.314Z,18.30
2022-07-28T06:58:02.139Z,18.40
2022-07-28T07:00:29.345Z,19.20
2022-07-28T07:02:56.323Z,19.50
2022-07-28T07:05:23.343Z,19.00
2022-07-28T07:07:50.224Z,18.70
2022-07-28T07:10:17.241Z,18.60
2022-07-28T07:12:44.236Z,19.10
2022-07-28T07:15:11.904Z,19.60
2022-07-28T07:17:39.074Z,19.10
2022-07-28T07:20:08.156Z,18.80
2022-07-28T07:22:35.470Z,18.60
2022-07-28T07:25:16.276Z,18.80
2022-07-28T07:27:43.662Z,19.30
2022-07-28T07:30:11.568Z,19.30
2022-07-28T07:32:38.848Z,19.40
2022-07-28T07:35:06.973Z,19.50
2022-07-28T07:37:33.952Z,19.80
2022-07-28T07:40:02.014Z,19.50
2022-07-28T07:42:29.184Z,20.00
2022-07-28T07:44:56.284Z,20.00
2022-07-28T07:47:23.160Z,20.20
2022-07-28T07:49:50.114Z,20.30
2022-07-28T07:52:17.016Z,20.40
2022-07-28T07:54:43.987Z,20.00
2022-07-28T07:57:11.117Z,20.20
2022-07-28T07:59:38.066Z,20.80
2022-07-28T08:02:05.554Z,20.80
2022-07-28T08:04:37.620Z,20.90
2022-07-28T08:07:07.067Z,20.00
2022-07-28T08:09:34.735Z,20.30
2022-07-28T08:12:01.882Z,20.10
2022-07-28T08:14:28.927Z,19.90
2022-07-28T08:16:56.869Z,20.80
2022-07-28T08:19:24.065Z,21.20
2022-07-28T08:21:51.378Z,20.70
2022-07-28T08:24:32.888Z,20.20
2022-07-28T08:27:04.314Z,20.10
2022-07-28T08:29:31.999Z,20.50
2022-07-28T08:31:59.075Z,20.70
2022-07-28T08:34:31.574Z,21.40
2022-07-28T08:37:04.759Z,21.80
2022-07-28T08:39:33.211Z,21.30
2022-07-28T08:42:26.248Z,20.80
2022-07-28T08:45:04.178Z,20.10
2022-07-28T08:47:58.643Z,20.30
2022-07-28T08:50:24.298Z,20.30
2022-07-28T08:52:53.174Z,21.10
2022-07-28T08:55:25.790Z,21.60
2022-07-28T08:58:00.377Z,22.10
2022-07-28T09:00:27.746Z,22.20
2022-07-28T09:02:55.517Z,21.50
2022-07-28T09:05:24.216Z,21.40
2022-07-28T09:07:55.394Z,22.10
2022-07-28T09:10:23.007Z,21.70
2022-07-28T09:12:49.999Z,21.50
2022-07-28T09:15:17.029Z,21.60
2022-07-28T09:17:44.021Z,22.40
2022-07-28T09:20:13.899Z,23.10
2022-07-28T09:23:05.517Z,23.30
2022-07-28T09:26:10.873Z,23.30
2022-07-28T09:28:50.666Z,22.90
2022-07-28T09:31:18.957Z,22.40
2022-07-28T09:34:05.662Z,22.50
2022-07-28T09:36:40.286Z,22.80
2022-07-28T09:39:08.144Z,22.60
2022-07-28T09:41:57.106Z,22.50
2022-07-28T09:44:25.233Z,22.50
2022-07-28T09:46:52.423Z,22.40
2022-07-28T09:49:23.948Z,23.50
2022-07-28T09:52:03.626Z,23.80
2022-07-28T09:54:30.611Z,23.90
2022-07-28T09:56:57.733Z,23.00
2022-07-28T09:59:24.736Z,22.90
2022-07-28T10:01:59.193Z,23.20
2022-07-28T10:04:51.161Z,23.80
2022-07-28T10:07:18.106Z,23.40
2022-07-28T10:09:56.777Z,22.80
2022-07-28T10:12:25.799Z,22.80
2022-07-28T10:14:58.503Z,22.90
2022-07-28T10:17:33.951Z,23.50
2022-07-28T10:20:04.169Z,23.80
2022-07-28T10:22:39.479Z,23.70
2022-07-28T10:25:12.113Z,23.80
2022-07-28T10:27:41.687Z,24.00
2022-07-28T10:30:10.001Z,23.40
2022-07-28T10:32:45.421Z,23.10
2022-07-28T10:35:17.127Z,23.40
2022-07-28T10:37:51.706Z,23.60
2022-07-28T10:40:24.453Z,24.80
2022-07-28T10:42:52.217Z,25.00
2022-07-28T10:45:19.235Z,24.60
2022-07-28T10:47:46.351Z,24.80
2022-07-28T10:50:14.624Z,24.20
2022-07-28T10:52:53.517Z,24.50
2022-07-28T10:55:54.141Z,24.60
2022-07-28T10:58:53.253Z,24.60
2022-07-28T11:01:49.647Z,24.90
2022-07-28T11:05:06.732Z,25.80
2022-07-28T11:07:42.534Z,24.50
2022-07-28T11:10:17.075Z,24.20
2022-07-28T11:13:04.115Z,24.80
2022-07-28T11:15:36.035Z,24.80
2022-07-28T11:18:08.719Z,24.40
2022-07-28T11:21:16.377Z,24.40
2022-07-28T11:23:54.023Z,24.00
2022-07-28T11:26:35.874Z,23.70
2022-07-28T11:29:23.174Z,23.70
2022-07-28T11:31:51.725Z,24.40
2022-07-28T11:34:24.906Z,24.60
2022-07-28T11:37:14.911Z,24.60
2022-07-28T11:39:44.128Z,25.40
2022-07-28T11:42:35.813Z,24.40
2022-07-28T11:45:22.644Z,23.90
2022-07-28T11:48:16.893Z,24.50
2022-07-28T11:51:13.463Z,25.50
2022-07-28T11:53:52.809Z,25.00
2022-07-28T11:56:36.106Z,24.30
2022-07-28T11:59:07.509Z,24.50
2022-07-28T12:01:38.133Z,24.50
2022-07-28T12:04:14.875Z,25.10
2022-07-28T12:06:51.255Z,25.80
2022-07-28T12:09:23.460Z,26.10
2022-07-28T12:11:55.418Z,26.70
2022-07-28T12:14:34.854Z,26.90
2022-07-28T12:17:04.437Z,27.10
2022-07-28T12:19:32.912Z,26.80
2022-07-28T12:22:00.523Z,26.20
2022-07-28T12:24:44.775Z,25.60
2022-07-28T12:27:14.910Z,26.20
2022-07-28T12:29:42.797Z,27.20
2022-07-28T12:32:10.478Z,27.20
2022-07-28T12:34:40.075Z,27.20
2022-07-28T12:37:12.319Z,25.50
2022-07-28T12:39:42.309Z,24.80
2022-07-28T12:42:11.722Z,25.50
2022-07-28T12:44:41.666Z,26.00
2022-07-28T12:47:12.562Z,25.90
2022-07-28T12:49:42.079Z,26.00
2022-07-28T12:52:25.156Z,25.60
2022-07-28T12:54:54.854Z,25.80
2022-07-28T12:57:50.025Z,25.70
2022-07-28T13:00:21.672Z,25.90
2022-07-28T13:02:50.007Z,25.50
2022-07-28T13:06:04.727Z,25.80
2022-07-28T13:08:46.019Z,26.70
2022-07-28T13:11:42.663Z,26.90
2022-07-28T13:14:02.164Z,26.70
2022-07-28T13:16:30.063Z,25.30
2022-07-28T13:18:59.530Z,25.80
2022-07-28T13:21:57.291Z,26.30
2022-07-28T13:24:28.991Z,26.00
2022-07-28T13:26:56.895Z,26.00
2022-07-28T13:29:24.006Z,26.60
2022-07-28T13:31:52.314Z,25.50
2022-07-28T13:34:19.657Z,25.10
2022-07-28T13:36:46.704Z,25.00
2022-07-28T13:39:14.343Z,24.80
2022-07-28T13:41:56.201Z,25.10
2022-07-28T13:44:25.877Z,25.80
2022-07-28T13:46:53.247Z,26.00
2022-07-28T13:49:22.844Z,26.20
2022-07-28T13:51:51.244Z,26.00
2022-07-28T13:54:19.756Z,25.90
2022-07-28T13:56:48.990Z,25.30
2022-07-28T13:59:16.747Z,25.10
2022-07-28T14:01:44.052Z,25.50
2022-07-28T14:04:17.920Z,25.70
2022-07-28T14:06:46.095Z,25.60
2022-07-28T14:09:18.188Z,25.20
2022-07-28T14:11:49.859Z,25.60
2022-07-28T14:14:23.863Z,25.30
2022-07-28T14:16:54.465Z,24.90
2022-07-28T14:19:38.686Z,25.10
2022-07-28T14:22:13.334Z,25.10
2022-07-28T14:24:44.146Z,25.40
2022-07-28T14:27:11.426Z,24.80
2022-07-28T14:29:39.037Z,24.50
2022-07-28T14:32:06.923Z,24.30
2022-07-28T14:34:34.430Z,24.30
2022-07-28T14:37:03.338Z,24.20
2022-07-28T14:39:31.783Z,24.30
2022-07-28T14:41:58.952Z,24.50
2022-07-28T14:44:26.990Z,24.70
2022-07-28T14:46:54.282Z,24.80
2022-07-28T14:49:21.319Z,24.90
2022-07-28T14:51:48.376Z,24.70
2022-07-28T14:54:15.786Z,24.80
2022-07-28T14:56:43.055Z,24.70
2022-07-28T14:59:09.976Z,24.60
2022-07-28T15:01:36.931Z,24.40
2022-07-28T15:04:04.868Z,24.50
2022-07-28T15:06:31.951Z,24.60
2022-07-28T15:08:58.868Z,24.30
2022-07-28T15:11:26.509Z,24.20
2022-07-28T15:13:53.450Z,24.00
2022-07-28T15:16:20.622Z,24.00
2022-07-28T15:18:47.521Z,24.20
2022-07-28T15:21:16.537Z,24.30
2022-07-28T15:23:43.957Z,24.20
2022-07-28T15:26:11.330Z,24.40
2022-07-28T15:28:39.147Z,24.40
2022-07-28T15:31:06.680Z,24.30
2022-07-28T15:33:43.849Z,24.10
2022-07-28T15:36:15.799Z,24.00
2022-07-28T15:38:47.348Z,23.90
2022-07-28T15:41:16.540Z,23.90
2022-07-28T15:43:43.823Z,23.90
2022-07-28T15:46:13.095Z,23.90
2022-07-28T15:48:42.701Z,23.80
2022-07-28T15:51:10.336Z,23.80
2022-07-28T15:53:37.456Z,24.00
2022-07-28T15:56:05.144Z,24.10
2022-07-28T15:58:32.034Z,24.20
2022-07-28T16:01:01.059Z,24.10
2022-07-28T16:03:29.523Z,24.00
2022-07-28T16:05:56.970Z,24.00
2022-07-28T16:08:23.913Z,23.80
2022-07-28T16:10:53.155Z,23.80
2022-07-28T16:13:35.519Z,23.90
2022-07-28T16:16:10.042Z,24.00
2022-07-28T16:18:38.601Z,23.90
2022-07-28T16:21:06.852Z,23.80
2022-07-28T16:23:34.021Z,23.80
2022-07-28T16:26:00.981Z,23.80
2022-07-28T16:28:28.005Z,24.00
2022-07-28T16:30:55.299Z,24.00
2022-07-28T16:33:22.487Z,24.20
2022-07-28T16:35:49.358Z,24.20
2022-07-28T16:38:19.234Z,24.20
2022-07-28T16:40:46.176Z,24.10
2022-07-28T16:43:13.048Z,24.00
2022-07-28T16:45:40.930Z,23.90
2022-07-28T16:48:08.000Z,23.90
2022-07-28T16:50:35.014Z,23.80
2022-07-28T16:53:04.997Z,23.70
2022-07-28T16:55:32.029Z,23.60
2022-07-28T16:57:59.060Z,23.60
2022-07-28T17:00:26.975Z,23.70
2022-07-28T17:02:53.928Z,23.80
2022-07-28T17:05:20.983Z,23.70
2022-07-28T17:07:47.861Z,23.70
2022-07-28T17:10:20.339Z,23.70
2022-07-28T17:12:49.851Z,23.50
2022-07-28T17:15:22.223Z,23.50
2022-07-28T17:17:50.628Z,23.50
2022-07-28T17:20:17.901Z,23.50
2022-07-28T17:22:45.428Z,23.50
2022-07-28T17:25:35.276Z,23.50
2022-07-28T17:28:00.256Z,23.40
2022-07-28T17:30:28.087Z,23.40
2022-07-28T17:32:59.234Z,23.40
2022-07-28T17:35:31.331Z,23.40
2022-07-28T17:38:02.535Z,23.40
2022-07-28T17:40:29.960Z,23.40
2022-07-28T17:42:56.871Z,23.30
2022-07-28T17:45:24.484Z,23.20
2022-07-28T17:47:51.574Z,23.10
2022-07-28T17:50:19.037Z,23.10
2022-07-28T17:52:46.534Z,23.10
2022-07-28T17:55:37.395Z,23.10
2022-07-28T17:58:26.348Z,23.00
2022-07-28T18:01:11.183Z,23.00
2022-07-28T18:03:57.935Z,22.90
2022-07-28T18:06:35.712Z,22.90
2022-07-28T18:09:07.046Z,22.80
2022-07-28T18:11:55.464Z,22.80
2022-07-28T18:14:26.874Z,22.80
2022-07-28T18:16:53.922Z,22.80
2022-07-28T18:19:20.960Z,22.70
2022-07-28T18:21:47.881Z,22.70
2022-07-28T18:24:17.456Z,22.60
2022-07-28T18:26:44.645Z,22.60
2022-07-28T18:29:11.822Z,22.50
2022-07-28T18:31:45.885Z,22.50
2022-07-28T18:34:14.490Z,22.40
2022-07-28T18:36:41.826Z,22.40
2022-07-28T18:39:08.851Z,22.30
2022-07-28T18:41:46.311Z,22.30
2022-07-28T18:44:16.068Z,22.20
2022-07-28T18:46:43.552Z,22.20
2022-07-28T18:49:10.605Z,22.20
2022-07-28T18:51:37.600Z,22.10
2022-07-28T18:54:04.864Z,22.00
2022-07-28T18:56:31.866Z,22.00
2022-07-28T18:58:58.937Z,22.00
2022-07-28T19:01:25.864Z,21.90
2022-07-28T19:03:52.838Z,21.90
2022-07-28T19:06:20.951Z,21.90
2022-07-28T19:08:48.118Z,21.80
2022-07-28T19:11:19.553Z,21.80
2022-07-28T19:13:47.031Z,21.70
2022-07-28T19:16:13.972Z,21.70
2022-07-28T19:18:41.231Z,21.60
2022-07-28T19:21:09.130Z,21.60
2022-07-28T19:23:36.122Z,21.50
2022-07-28T19:26:06.088Z,21.40
2022-07-28T19:28:33.113Z,21.40
2022-07-28T19:31:10.191Z,21.30
2022-07-28T19:33:43.041Z,21.20
2022-07-28T19:36:11.818Z,21.20
2022-07-28T19:38:38.739Z,21.10
2022-07-28T19:41:05.619Z,21.20
2022-07-28T19:43:35.138Z,21.10
2022-07-28T19:46:02.549Z,21.00
2022-07-28T19:48:29.635Z,21.00
2022-07-28T19:50:56.853Z,21.10
2022-07-28T19:53:25.325Z,21.00
2022-07-28T19:55:59.750Z,21.00
2022-07-28T19:58:27.625Z,21.00
2022-07-28T20:00:56.470Z,20.90
2022-07-28T20:04:01.308Z,20.90
2022-07-28T20:06:11.332Z,20.80
2022-07-28T20:08:38.359Z,20.80
2022-07-28T20:11:05.411Z,20.80
2022-07-28T20:13:32.559Z,20.70
2022-07-28T20:15:59.472Z,20.70
2022-07-28T20:18:26.400Z,20.70
2022-07-28T20:20:53.549Z,20.80
2022-07-28T20:23:20.650Z,20.70
2022-07-28T20:25:47.565Z,20.70
2022-07-28T20:28:14.573Z,20.70
2022-07-28T20:30:41.700Z,20.70
2022-07-28T20:33:09.034Z,20.60
2022-07-28T20:35:36.075Z,20.60
2022-07-28T20:38:05.064Z,20.60
2022-07-28T20:40:32.033Z,20.60
2022-07-28T20:42:59.023Z,20.50
2022-07-28T20:45:26.122Z,20.50
2022-07-28T20:47:53.107Z,20.50
2022-07-28T20:50:21.098Z,20.40
2022-07-28T20:52:48.687Z,20.50
2022-07-28T20:55:15.657Z,20.40
2022-07-28T20:57:42.618Z,20.40
2022-07-28T21:00:21.138Z,20.40
2022-07-28T21:02:48.199Z,20.40
2022-07-28T21:05:24.526Z,20.40
2022-07-28T21:08:04.466Z,20.30
2022-07-28T21:10:33.740Z,20.30
2022-07-28T21:13:00.720Z,20.30
2022-07-28T21:15:27.790Z,20.20
2022-07-28T21:17:56.982Z,20.20
2022-07-28T21:20:24.892Z,20.10
2022-07-28T21:22:52.101Z,20.10
2022-07-28T21:25:19.453Z,20.10
2022-07-28T21:28:05.115Z,20.00
2022-07-28T21:30:32.311Z,19.90
2022-07-28T21:32:59.400Z,19.80
2022-07-28T21:35:26.506Z,19.80
2022-07-28T21:37:53.516Z,19.70
2022-07-28T21:40:20.886Z,19.70
2022-07-28T21:42:47.954Z,19.70
2022-07-28T21:45:14.909Z,19.70
2022-07-28T21:47:42.119Z,19.70
2022-07-28T21:50:11.230Z,19.60
2022-07-28T21:52:38.515Z,19.60
2022-07-28T21:55:07.663Z,19.60
2022-07-28T21:57:34.769Z,19.60
2022-07-28T22:00:02.446Z,19.60
2022-07-28T22:02:29.473Z,19.50
2022-07-28T22:04:56.586Z,19.50
2022-07-28T22:07:23.623Z,19.50
2022-07-28T22:09:50.541Z,19.40
2022-07-28T22:12:17.440Z,19.40
2022-07-28T22:14:44.593Z,19.40
2022-07-28T22:17:11.535Z,19.40
2022-07-28T22:19:38.503Z,19.40
2022-07-28T22:22:05.511Z,19.40
2022-07-28T22:24:32.488Z,19.40
2022-07-28T22:26:59.850Z,19.40
2022-07-28T22:29:26.788Z,19.30
2022-07-28T22:31:59.593Z,19.30
2022-07-28T22:34:28.144Z,19.30
2022-07-28T22:36:55.222Z,19.30
2022-07-28T22:39:22.229Z,19.30
2022-07-28T22:41:49.542Z,19.20
2022-07-28T22:44:17.157Z,19.20
2022-07-28T22:46:44.871Z,19.10
2022-07-28T22:49:11.859Z,19.10
2022-07-28T22:51:39.248Z,19.10
2022-07-28T22:54:14.429Z,19.10
2022-07-28T22:56:41.630Z,19.10
2022-07-28T22:59:08.830Z,19.10
2022-07-28T23:01:37.078Z,19.00
2022-07-28T23:04:04.400Z,19.00
2022-07-28T23:06:34.312Z,19.00
2022-07-28T23:09:01.388Z,19.00
2022-07-28T23:11:28.378Z,19.00
2022-07-28T23:13:55.277Z,19.00
2022-07-28T23:16:22.295Z,19.00
2022-07-28T23:18:49.401Z,18.90
2022-07-28T23:21:16.362Z,18.90
2022-07-28T23:23:43.272Z,19.00
2022-07-28T23:26:10.173Z,18.90
2022-07-28T23:28:37.742Z,18.90
2022-07-28T23:31:05.752Z,18.80
2022-07-28T23:33:56.005Z,18.80
2022-07-28T23:36:26.007Z,18.80
2022-07-28T23:38:57.614Z,18.80
2022-07-28T23:41:25.339Z,18.80
2022-07-28T23:43:52.689Z,18.80
2022-07-28T23:46:22.410Z,18.70
2022-07-28T23:48:50.006Z,18.70
2022-07-28T23:51:17.045Z,18.70
2022-07-28T23:53:44.232Z,18.60
2022-07-28T23:56:11.326Z,18.50
2022-07-28T23:58:38.249Z,18.50
